sensor_id;sensor_type;location;lat;lon;timestamp;temperature;humidity
37974;DHT22;23796;51.458;7.000;2024-02-28T00:00:23;2.20;99.90
37974;DHT22;23796;51.458;7.000;2024-02-28T00:02:51;2.20;99.90
37974;DHT22;23796;51.458;7.000;2024-02-28T00:05:16;2.20;99.90
37974;DHT22;23796;51.458;7.000;2024-02-28T00:07:44;2.20;99.90
37974;DHT22;23796;51.458;7.000;2024-02-28T00:10:11;2.20;99.90
37974;DHT22;23796;51.458;7.000;2024-02-28T00:12:38;2.30;99.90
37974;DHT22;23796;51.458;7.000;2024-02-28T00:15:05;2.40;99.90
37974;DHT22;23796;51.458;7.000;2024-02-28T00:17:30;2.50;99.90
37974;DHT22;23796;51.458;7.000;2024-02-28T00:19:56;2.50;99.90
37974;DHT22;23796;51.458;7.000;2024-02-28T00:22:24;2.50;99.90
37974;DHT22;23796;51.458;7.000;2024-02-28T00:24:52;2.40;99.90
37974;DHT22;23796;51.458;7.000;2024-02-28T00:27:17;2.50;99.90
37974;DHT22;23796;51.458;7.000;2024-02-28T00:29:43;2.50;99.90
37974;DHT22;23796;51.458;7.000;2024-02-28T00:32:08;2.50;99.90
37974;DHT22;23796;51.458;7.000;2024-02-28T00:34:36;2.50;99.90
37974;DHT22;23796;51.458;7.000;2024-02-28T00:37:02;2.50;99.90
37974;DHT22;23796;51.458;7.000;2024-02-28T00:39:27;2.50;99.90
37974;DHT22;23796;51.458;7.000;2024-02-28T00:41:53;2.50;99.90
37974;DHT22;23796;51.458;7.000;2024-02-28T00:44:18;2.60;99.90
37974;DHT22;23796;51.458;7.000;2024-02-28T00:46:46;2.60;99.90
37974;DHT22;23796;51.458;7.000;2024-02-28T00:49:14;2.60;99.90
37974;DHT22;23796;51.458;7.000;2024-02-28T00:51:45;2.50;99.90
37974;DHT22;23796;51.458;7.000;2024-02-28T00:54:11;2.40;99.90
37974;DHT22;23796;51.458;7.000;2024-02-28T00:56:36;2.40;99.90
37974;DHT22;23796;51.458;7.000;2024-02-28T00:59:02;2.40;99.90
37974;DHT22;23796;51.458;7.000;2024-02-28T01:01:28;2.40;99.90
37974;DHT22;23796;51.458;7.000;2024-02-28T01:03:53;2.40;99.90
37974;DHT22;23796;51.458;7.000;2024-02-28T01:06:19;2.40;99.90
37974;DHT22;23796;51.458;7.000;2024-02-28T01:08:44;2.50;99.90
37974;DHT22;23796;51.458;7.000;2024-02-28T01:11:13;2.50;99.90
37974;DHT22;23796;51.458;7.000;2024-02-28T01:13:38;2.40;99.90
37974;DHT22;23796;51.458;7.000;2024-02-28T01:16:04;2.30;99.90
37974;DHT22;23796;51.458;7.000;2024-02-28T01:18:29;2.40;99.90
37974;DHT22;23796;51.458;7.000;2024-02-28T01:20:59;2.40;99.90
37974;DHT22;23796;51.458;7.000;2024-02-28T01:23:25;2.30;99.90
37974;DHT22;23796;51.458;7.000;2024-02-28T01:25:50;2.10;99.90
37974;DHT22;23796;51.458;7.000;2024-02-28T01:28:16;2.00;99.90
37974;DHT22;23796;51.458;7.000;2024-02-28T01:30:41;1.90;99.90
37974;DHT22;23796;51.458;7.000;2024-02-28T01:33:07;1.80;99.90
37974;DHT22;23796;51.458;7.000;2024-02-28T01:35:33;1.90;99.90
37974;DHT22;23796;51.458;7.000;2024-02-28T01:37:58;2.20;99.90
37974;DHT22;23796;51.458;7.000;2024-02-28T01:40:24;2.50;99.90
37974;DHT22;23796;51.458;7.000;2024-02-28T01:42:49;2.70;99.90
37974;DHT22;23796;51.458;7.000;2024-02-28T01:45:19;2.80;99.90
37974;DHT22;23796;51.458;7.000;2024-02-28T01:47:45;2.90;99.90
37974;DHT22;23796;51.458;7.000;2024-02-28T01:50:11;2.90;99.90
37974;DHT22;23796;51.458;7.000;2024-02-28T01:52:39;3.00;99.90
37974;DHT22;23796;51.458;7.000;2024-02-28T01:55:06;3.00;99.90
37974;DHT22;23796;51.458;7.000;2024-02-28T01:57:32;3.00;99.90
37974;DHT22;23796;51.458;7.000;2024-02-28T02:00:03;3.00;99.90
37974;DHT22;23796;51.458;7.000;2024-02-28T02:02:29;2.90;99.90
37974;DHT22;23796;51.458;7.000;2024-02-28T02:04:57;2.80;99.90
37974;DHT22;23796;51.458;7.000;2024-02-28T02:07:24;2.70;99.90
37974;DHT22;23796;51.458;7.000;2024-02-28T02:09:49;2.70;99.90
37974;DHT22;23796;51.458;7.000;2024-02-28T02:12:15;2.70;99.90
37974;DHT22;23796;51.458;7.000;2024-02-28T02:14:41;2.40;99.90
37974;DHT22;23796;51.458;7.000;2024-02-28T02:17:12;2.30;99.90
37974;DHT22;23796;51.458;7.000;2024-02-28T02:19:38;2.40;99.90
37974;DHT22;23796;51.458;7.000;2024-02-28T02:22:08;2.70;99.90
37974;DHT22;23796;51.458;7.000;2024-02-28T02:24:34;2.90;99.90
37974;DHT22;23796;51.458;7.000;2024-02-28T02:27:00;3.10;99.90
37974;DHT22;23796;51.458;7.000;2024-02-28T02:29:28;3.30;99.90
37974;DHT22;23796;51.458;7.000;2024-02-28T02:31:54;3.40;99.90
37974;DHT22;23796;51.458;7.000;2024-02-28T02:34:19;3.50;99.90
37974;DHT22;23796;51.458;7.000;2024-02-28T02:36:45;3.50;99.90
37974;DHT22;23796;51.458;7.000;2024-02-28T02:39:11;3.50;99.90
37974;DHT22;23796;51.458;7.000;2024-02-28T02:41:36;3.60;99.90
37974;DHT22;23796;51.458;7.000;2024-02-28T02:44:02;3.70;99.90
37974;DHT22;23796;51.458;7.000;2024-02-28T02:46:30;3.70;99.90
37974;DHT22;23796;51.458;7.000;2024-02-28T02:48:55;3.70;99.90
37974;DHT22;23796;51.458;7.000;2024-02-28T02:51:21;3.70;99.90
37974;DHT22;23796;51.458;7.000;2024-02-28T02:53:47;3.70;99.90
37974;DHT22;23796;51.458;7.000;2024-02-28T02:56:12;3.80;99.90
37974;DHT22;23796;51.458;7.000;2024-02-28T02:58:40;3.80;99.90
37974;DHT22;23796;51.458;7.000;2024-02-28T03:01:05;3.80;99.90
37974;DHT22;23796;51.458;7.000;2024-02-28T03:03:31;3.80;99.90
37974;DHT22;23796;51.458;7.000;2024-02-28T03:05:57;3.90;99.90
37974;DHT22;23796;51.458;7.000;2024-02-28T03:08:22;3.90;99.90
37974;DHT22;23796;51.458;7.000;2024-02-28T03:10:48;4.00;99.90
37974;DHT22;23796;51.458;7.000;2024-02-28T03:13:13;4.10;99.90
37974;DHT22;23796;51.458;7.000;2024-02-28T03:15:39;4.10;99.90
37974;DHT22;23796;51.458;7.000;2024-02-28T03:18:04;4.10;99.90
37974;DHT22;23796;51.458;7.000;2024-02-28T03:20:30;4.10;99.90
37974;DHT22;23796;51.458;7.000;2024-02-28T03:22:56;4.10;99.90
37974;DHT22;23796;51.458;7.000;2024-02-28T03:25:21;4.10;99.90
37974;DHT22;23796;51.458;7.000;2024-02-28T03:27:47;4.10;99.90
37974;DHT22;23796;51.458;7.000;2024-02-28T03:30:12;4.10;99.90
37974;DHT22;23796;51.458;7.000;2024-02-28T03:32:40;4.10;99.90
37974;DHT22;23796;51.458;7.000;2024-02-28T03:35:06;4.10;99.90
37974;DHT22;23796;51.458;7.000;2024-02-28T03:37:34;4.20;99.90
37974;DHT22;23796;51.458;7.000;2024-02-28T03:39:59;4.20;99.90
37974;DHT22;23796;51.458;7.000;2024-02-28T03:42:25;4.30;99.90
37974;DHT22;23796;51.458;7.000;2024-02-28T03:44:53;4.30;99.90
37974;DHT22;23796;51.458;7.000;2024-02-28T03:47:18;4.40;99.90
37974;DHT22;23796;51.458;7.000;2024-02-28T03:49:44;4.40;99.90
37974;DHT22;23796;51.458;7.000;2024-02-28T03:52:10;4.50;99.90
37974;DHT22;23796;51.458;7.000;2024-02-28T03:54:38;4.50;99.90
37974;DHT22;23796;51.458;7.000;2024-02-28T03:57:03;4.50;99.90
37974;DHT22;23796;51.458;7.000;2024-02-28T03:59:29;4.50;99.90
37974;DHT22;23796;51.458;7.000;2024-02-28T04:01:54;4.50;99.90
37974;DHT22;23796;51.458;7.000;2024-02-28T04:04:20;4.40;99.90
37974;DHT22;23796;51.458;7.000;2024-02-28T04:06:45;4.50;99.90
37974;DHT22;23796;51.458;7.000;2024-02-28T04:09:11;4.50;99.90
37974;DHT22;23796;51.458;7.000;2024-02-28T04:11:37;4.60;99.90
37974;DHT22;23796;51.458;7.000;2024-02-28T04:14:03;4.60;99.90
37974;DHT22;23796;51.458;7.000;2024-02-28T04:16:29;4.60;99.90
37974;DHT22;23796;51.458;7.000;2024-02-28T04:18:54;4.70;99.90
37974;DHT22;23796;51.458;7.000;2024-02-28T04:21:20;4.60;99.90
37974;DHT22;23796;51.458;7.000;2024-02-28T04:23:46;4.50;99.90
37974;DHT22;23796;51.458;7.000;2024-02-28T04:26:13;4.40;99.90
37974;DHT22;23796;51.458;7.000;2024-02-28T04:28:40;4.40;99.90
37974;DHT22;23796;51.458;7.000;2024-02-28T04:31:06;4.50;99.90
37974;DHT22;23796;51.458;7.000;2024-02-28T04:33:32;4.60;99.90
37974;DHT22;23796;51.458;7.000;2024-02-28T04:35:58;4.70;99.90
37974;DHT22;23796;51.458;7.000;2024-02-28T04:38:23;4.70;99.90
37974;DHT22;23796;51.458;7.000;2024-02-28T04:40:49;4.60;99.90
37974;DHT22;23796;51.458;7.000;2024-02-28T04:43:15;4.60;99.90
37974;DHT22;23796;51.458;7.000;2024-02-28T04:45:43;4.70;99.90
37974;DHT22;23796;51.458;7.000;2024-02-28T04:48:08;4.70;99.90
37974;DHT22;23796;51.458;7.000;2024-02-28T04:50:35;4.80;99.90
37974;DHT22;23796;51.458;7.000;2024-02-28T04:53:00;4.80;99.90
37974;DHT22;23796;51.458;7.000;2024-02-28T04:55:26;4.90;99.90
37974;DHT22;23796;51.458;7.000;2024-02-28T04:57:54;4.90;99.90
37974;DHT22;23796;51.458;7.000;2024-02-28T05:00:20;4.90;99.90
37974;DHT22;23796;51.458;7.000;2024-02-28T05:02:47;5.00;99.90
37974;DHT22;23796;51.458;7.000;2024-02-28T05:05:13;5.00;99.90
37974;DHT22;23796;51.458;7.000;2024-02-28T05:07:39;5.00;99.90
37974;DHT22;23796;51.458;7.000;2024-02-28T05:10:05;5.00;99.90
37974;DHT22;23796;51.458;7.000;2024-02-28T05:12:30;5.00;99.90
37974;DHT22;23796;51.458;7.000;2024-02-28T05:14:56;5.00;99.90
37974;DHT22;23796;51.458;7.000;2024-02-28T05:17:22;5.00;99.90
37974;DHT22;23796;51.458;7.000;2024-02-28T05:19:47;5.00;99.90
37974;DHT22;23796;51.458;7.000;2024-02-28T05:22:13;5.00;99.90
37974;DHT22;23796;51.458;7.000;2024-02-28T05:24:41;5.00;99.90
37974;DHT22;23796;51.458;7.000;2024-02-28T05:27:09;5.00;99.90
37974;DHT22;23796;51.458;7.000;2024-02-28T05:29:34;5.00;99.90
37974;DHT22;23796;51.458;7.000;2024-02-28T05:32:00;5.00;99.90
37974;DHT22;23796;51.458;7.000;2024-02-28T05:34:26;5.00;99.90
37974;DHT22;23796;51.458;7.000;2024-02-28T05:36:51;5.00;99.90
37974;DHT22;23796;51.458;7.000;2024-02-28T05:39:17;5.10;99.90
37974;DHT22;23796;51.458;7.000;2024-02-28T05:41:42;5.00;99.90
37974;DHT22;23796;51.458;7.000;2024-02-28T05:44:08;5.00;99.90
37974;DHT22;23796;51.458;7.000;2024-02-28T05:46:33;5.10;99.90
37974;DHT22;23796;51.458;7.000;2024-02-28T05:49:02;5.10;99.90
37974;DHT22;23796;51.458;7.000;2024-02-28T05:51:28;5.10;99.90
37974;DHT22;23796;51.458;7.000;2024-02-28T05:53:53;5.10;99.90
37974;DHT22;23796;51.458;7.000;2024-02-28T05:56:19;5.10;99.90
37974;DHT22;23796;51.458;7.000;2024-02-28T05:58:46;5.10;99.90
37974;DHT22;23796;51.458;7.000;2024-02-28T06:01:14;5.10;99.90
37974;DHT22;23796;51.458;7.000;2024-02-28T06:03:40;5.10;99.90
37974;DHT22;23796;51.458;7.000;2024-02-28T06:06:08;5.20;99.90
37974;DHT22;23796;51.458;7.000;2024-02-28T06:08:40;5.20;99.90
37974;DHT22;23796;51.458;7.000;2024-02-28T06:11:08;5.20;99.90
37974;DHT22;23796;51.458;7.000;2024-02-28T06:13:37;5.10;99.90
37974;DHT22;23796;51.458;7.000;2024-02-28T06:16:02;5.10;99.90
37974;DHT22;23796;51.458;7.000;2024-02-28T06:18:31;5.10;99.90
37974;DHT22;23796;51.458;7.000;2024-02-28T06:20:58;5.10;99.90
37974;DHT22;23796;51.458;7.000;2024-02-28T06:23:26;5.00;99.90
37974;DHT22;23796;51.458;7.000;2024-02-28T06:25:52;5.10;99.90
37974;DHT22;23796;51.458;7.000;2024-02-28T06:28:20;5.10;99.90
37974;DHT22;23796;51.458;7.000;2024-02-28T06:30:48;5.20;99.90
37974;DHT22;23796;51.458;7.000;2024-02-28T06:33:14;5.30;99.90
37974;DHT22;23796;51.458;7.000;2024-02-28T06:35:42;5.30;99.90
37974;DHT22;23796;51.458;7.000;2024-02-28T06:38:08;5.30;99.90
37974;DHT22;23796;51.458;7.000;2024-02-28T06:40:34;5.20;99.90
37974;DHT22;23796;51.458;7.000;2024-02-28T06:43:00;5.30;99.90
37974;DHT22;23796;51.458;7.000;2024-02-28T06:45:26;5.20;99.90
37974;DHT22;23796;51.458;7.000;2024-02-28T06:47:52;5.10;99.90
37974;DHT22;23796;51.458;7.000;2024-02-28T06:50:20;5.10;99.90
37974;DHT22;23796;51.458;7.000;2024-02-28T06:52:46;5.10;99.90
37974;DHT22;23796;51.458;7.000;2024-02-28T06:55:11;5.10;99.90
37974;DHT22;23796;51.458;7.000;2024-02-28T06:57:37;5.10;99.90
37974;DHT22;23796;51.458;7.000;2024-02-28T07:00:05;5.10;99.90
37974;DHT22;23796;51.458;7.000;2024-02-28T07:02:31;5.20;99.90
37974;DHT22;23796;51.458;7.000;2024-02-28T07:04:56;5.20;99.90
37974;DHT22;23796;51.458;7.000;2024-02-28T07:07:22;5.30;99.90
37974;DHT22;23796;51.458;7.000;2024-02-28T07:09:47;5.40;99.90
37974;DHT22;23796;51.458;7.000;2024-02-28T07:12:13;5.50;99.90
37974;DHT22;23796;51.458;7.000;2024-02-28T07:14:41;5.50;99.90
37974;DHT22;23796;51.458;7.000;2024-02-28T07:17:06;5.50;99.90
37974;DHT22;23796;51.458;7.000;2024-02-28T07:19:36;5.60;99.90
37974;DHT22;23796;51.458;7.000;2024-02-28T07:22:01;5.50;99.90
37974;DHT22;23796;51.458;7.000;2024-02-28T07:24:28;5.60;99.90
37974;DHT22;23796;51.458;7.000;2024-02-28T07:26:53;5.60;99.90
37974;DHT22;23796;51.458;7.000;2024-02-28T07:29:19;5.70;99.90
37974;DHT22;23796;51.458;7.000;2024-02-28T07:31:47;5.70;99.90
37974;DHT22;23796;51.458;7.000;2024-02-28T07:34:13;5.70;99.90
37974;DHT22;23796;51.458;7.000;2024-02-28T07:36:41;5.60;99.90
37974;DHT22;23796;51.458;7.000;2024-02-28T07:39:10;5.60;99.90
37974;DHT22;23796;51.458;7.000;2024-02-28T07:41:39;5.60;99.90
37974;DHT22;23796;51.458;7.000;2024-02-28T07:44:05;5.50;99.90
37974;DHT22;23796;51.458;7.000;2024-02-28T07:46:32;5.60;99.90
37974;DHT22;23796;51.458;7.000;2024-02-28T07:48:58;5.60;99.90
37974;DHT22;23796;51.458;7.000;2024-02-28T07:51:23;5.60;99.90
37974;DHT22;23796;51.458;7.000;2024-02-28T07:53:49;5.60;99.90
37974;DHT22;23796;51.458;7.000;2024-02-28T07:56:18;5.50;99.90
37974;DHT22;23796;51.458;7.000;2024-02-28T07:58:44;5.60;99.90
37974;DHT22;23796;51.458;7.000;2024-02-28T08:01:11;5.70;99.90
37974;DHT22;23796;51.458;7.000;2024-02-28T08:03:36;5.70;99.90
37974;DHT22;23796;51.458;7.000;2024-02-28T08:06:02;5.60;99.90
37974;DHT22;23796;51.458;7.000;2024-02-28T08:08:30;5.80;99.90
37974;DHT22;23796;51.458;7.000;2024-02-28T08:10:55;5.80;99.90
37974;DHT22;23796;51.458;7.000;2024-02-28T08:13:21;5.90;99.90
37974;DHT22;23796;51.458;7.000;2024-02-28T08:15:47;5.90;99.90
37974;DHT22;23796;51.458;7.000;2024-02-28T08:18:15;6.10;99.90
37974;DHT22;23796;51.458;7.000;2024-02-28T08:20:40;6.30;99.90
37974;DHT22;23796;51.458;7.000;2024-02-28T08:23:06;6.30;99.90
37974;DHT22;23796;51.458;7.000;2024-02-28T08:25:32;6.30;99.90
37974;DHT22;23796;51.458;7.000;2024-02-28T08:28:00;6.50;99.70
37974;DHT22;23796;51.458;7.000;2024-02-28T08:30:25;6.40;99.10
37974;DHT22;23796;51.458;7.000;2024-02-28T08:32:51;6.50;99.30
37974;DHT22;23796;51.458;7.000;2024-02-28T08:35:19;6.40;99.00
37974;DHT22;23796;51.458;7.000;2024-02-28T08:37:44;6.30;99.50
37974;DHT22;23796;51.458;7.000;2024-02-28T08:40:10;6.20;99.70
37974;DHT22;23796;51.458;7.000;2024-02-28T08:42:39;6.20;99.80
37974;DHT22;23796;51.458;7.000;2024-02-28T08:45:04;6.00;99.90
37974;DHT22;23796;51.458;7.000;2024-02-28T08:47:31;6.10;99.90
37974;DHT22;23796;51.458;7.000;2024-02-28T08:49:57;6.20;99.90
37974;DHT22;23796;51.458;7.000;2024-02-28T08:52:23;6.40;99.50
37974;DHT22;23796;51.458;7.000;2024-02-28T08:54:48;6.60;98.90
37974;DHT22;23796;51.458;7.000;2024-02-28T08:57:14;6.50;98.30
37974;DHT22;23796;51.458;7.000;2024-02-28T08:59:40;6.50;98.60
37974;DHT22;23796;51.458;7.000;2024-02-28T09:02:08;6.60;98.20
37974;DHT22;23796;51.458;7.000;2024-02-28T09:04:36;6.50;98.10
37974;DHT22;23796;51.458;7.000;2024-02-28T09:07:04;6.30;98.50
37974;DHT22;23796;51.458;7.000;2024-02-28T09:09:32;6.20;98.70
37974;DHT22;23796;51.458;7.000;2024-02-28T09:12:03;6.20;99.20
37974;DHT22;23796;51.458;7.000;2024-02-28T09:14:28;6.30;99.00
37974;DHT22;23796;51.458;7.000;2024-02-28T09:16:54;6.20;99.00
37974;DHT22;23796;51.458;7.000;2024-02-28T09:19:26;6.20;99.00
37974;DHT22;23796;51.458;7.000;2024-02-28T09:21:51;6.50;98.70
37974;DHT22;23796;51.458;7.000;2024-02-28T09:24:17;6.70;97.90
37974;DHT22;23796;51.458;7.000;2024-02-28T09:26:42;6.80;97.30
37974;DHT22;23796;51.458;7.000;2024-02-28T09:29:11;7.00;96.90
37974;DHT22;23796;51.458;7.000;2024-02-28T09:31:39;7.10;96.60
37974;DHT22;23796;51.458;7.000;2024-02-28T09:34:04;7.00;96.20
37974;DHT22;23796;51.458;7.000;2024-02-28T09:36:44;7.00;96.20
37974;DHT22;23796;51.458;7.000;2024-02-28T09:39:13;7.10;96.40
37974;DHT22;23796;51.458;7.000;2024-02-28T09:41:41;7.20;96.00
37974;DHT22;23796;51.458;7.000;2024-02-28T09:44:07;7.10;95.80
37974;DHT22;23796;51.458;7.000;2024-02-28T09:46:34;7.10;95.90
37974;DHT22;23796;51.458;7.000;2024-02-28T09:49:05;7.10;96.10
37974;DHT22;23796;51.458;7.000;2024-02-28T09:51:35;7.20;95.80
37974;DHT22;23796;51.458;7.000;2024-02-28T09:54:02;7.20;95.70
37974;DHT22;23796;51.458;7.000;2024-02-28T09:56:29;7.10;96.50
37974;DHT22;23796;51.458;7.000;2024-02-28T09:58:57;7.30;96.00
37974;DHT22;23796;51.458;7.000;2024-02-28T10:01:28;7.40;95.50
37974;DHT22;23796;51.458;7.000;2024-02-28T10:03:57;7.40;95.30
37974;DHT22;23796;51.458;7.000;2024-02-28T10:06:24;7.30;95.50
37974;DHT22;23796;51.458;7.000;2024-02-28T10:08:52;7.30;95.50
37974;DHT22;23796;51.458;7.000;2024-02-28T10:11:25;7.40;95.70
37974;DHT22;23796;51.458;7.000;2024-02-28T10:13:52;7.60;95.00
37974;DHT22;23796;51.458;7.000;2024-02-28T10:16:22;7.50;94.60
37974;DHT22;23796;51.458;7.000;2024-02-28T10:18:50;7.70;94.60
37974;DHT22;23796;51.458;7.000;2024-02-28T10:21:15;8.00;93.50
37974;DHT22;23796;51.458;7.000;2024-02-28T10:23:42;8.10;93.00
37974;DHT22;23796;51.458;7.000;2024-02-28T10:26:12;8.10;92.90
37974;DHT22;23796;51.458;7.000;2024-02-28T10:28:38;8.30;92.30
37974;DHT22;23796;51.458;7.000;2024-02-28T10:31:06;8.30;92.20
37974;DHT22;23796;51.458;7.000;2024-02-28T10:33:32;8.40;92.10
37974;DHT22;23796;51.458;7.000;2024-02-28T10:35:59;8.50;91.90
37974;DHT22;23796;51.458;7.000;2024-02-28T10:38:26;8.40;91.70
37974;DHT22;23796;51.458;7.000;2024-02-28T10:40:53;8.40;91.70
37974;DHT22;23796;51.458;7.000;2024-02-28T10:43:19;8.50;91.40
37974;DHT22;23796;51.458;7.000;2024-02-28T10:45:46;8.60;91.10
37974;DHT22;23796;51.458;7.000;2024-02-28T10:48:14;8.80;91.00
37974;DHT22;23796;51.458;7.000;2024-02-28T10:50:47;8.90;90.60
37974;DHT22;23796;51.458;7.000;2024-02-28T10:53:14;8.90;90.40
37974;DHT22;23796;51.458;7.000;2024-02-28T10:55:46;8.80;89.90
37974;DHT22;23796;51.458;7.000;2024-02-28T10:58:14;8.50;91.10
37974;DHT22;23796;51.458;7.000;2024-02-28T11:00:41;8.70;91.00
37974;DHT22;23796;51.458;7.000;2024-02-28T11:03:09;8.70;91.20
37974;DHT22;23796;51.458;7.000;2024-02-28T11:05:39;8.90;90.50
37974;DHT22;23796;51.458;7.000;2024-02-28T11:08:29;9.00;89.60
37974;DHT22;23796;51.458;7.000;2024-02-28T11:10:59;9.10;89.60
37974;DHT22;23796;51.458;7.000;2024-02-28T11:13:28;9.30;89.10
37974;DHT22;23796;51.458;7.000;2024-02-28T11:15:54;9.30;88.50
37974;DHT22;23796;51.458;7.000;2024-02-28T11:18:23;9.30;88.60
37974;DHT22;23796;51.458;7.000;2024-02-28T11:20:48;9.30;88.70
37974;DHT22;23796;51.458;7.000;2024-02-28T11:23:17;9.20;88.70
37974;DHT22;23796;51.458;7.000;2024-02-28T11:25:43;9.00;89.20
37974;DHT22;23796;51.458;7.000;2024-02-28T11:28:11;9.00;89.60
37974;DHT22;23796;51.458;7.000;2024-02-28T11:30:37;8.90;89.70
37974;DHT22;23796;51.458;7.000;2024-02-28T11:33:02;9.00;89.80
37974;DHT22;23796;51.458;7.000;2024-02-28T11:35:28;9.00;89.60
37974;DHT22;23796;51.458;7.000;2024-02-28T11:37:55;9.10;89.40
37974;DHT22;23796;51.458;7.000;2024-02-28T11:40:24;9.20;89.50
37974;DHT22;23796;51.458;7.000;2024-02-28T11:42:51;9.70;88.60
37974;DHT22;23796;51.458;7.000;2024-02-28T11:45:17;10.20;86.60
37974;DHT22;23796;51.458;7.000;2024-02-28T11:47:43;10.30;85.90
37974;DHT22;23796;51.458;7.000;2024-02-28T11:50:09;10.20;85.70
37974;DHT22;23796;51.458;7.000;2024-02-28T11:52:37;10.10;86.20
37974;DHT22;23796;51.458;7.000;2024-02-28T11:55:06;10.20;86.10
37974;DHT22;23796;51.458;7.000;2024-02-28T11:57:34;10.20;85.80
37974;DHT22;23796;51.458;7.000;2024-02-28T12:00:07;10.10;86.30
37974;DHT22;23796;51.458;7.000;2024-02-28T12:02:34;9.80;87.10
37974;DHT22;23796;51.458;7.000;2024-02-28T12:05:02;9.80;87.30
37974;DHT22;23796;51.458;7.000;2024-02-28T12:07:31;9.80;87.20
37974;DHT22;23796;51.458;7.000;2024-02-28T12:09:57;9.90;87.10
37974;DHT22;23796;51.458;7.000;2024-02-28T12:12:23;9.90;86.90
37974;DHT22;23796;51.458;7.000;2024-02-28T12:14:50;9.70;86.90
37974;DHT22;23796;51.458;7.000;2024-02-28T12:17:15;9.60;87.00
37974;DHT22;23796;51.458;7.000;2024-02-28T12:19:41;9.30;88.20
37974;DHT22;23796;51.458;7.000;2024-02-28T12:22:08;9.30;88.00
37974;DHT22;23796;51.458;7.000;2024-02-28T12:24:36;9.40;88.60
37974;DHT22;23796;51.458;7.000;2024-02-28T12:27:02;9.40;88.10
37974;DHT22;23796;51.458;7.000;2024-02-28T12:29:27;9.40;88.00
37974;DHT22;23796;51.458;7.000;2024-02-28T12:31:53;9.60;87.40
37974;DHT22;23796;51.458;7.000;2024-02-28T12:34:18;9.30;88.00
37974;DHT22;23796;51.458;7.000;2024-02-28T12:36:44;9.50;87.70
37974;DHT22;23796;51.458;7.000;2024-02-28T12:39:10;9.70;87.00
37974;DHT22;23796;51.458;7.000;2024-02-28T12:41:39;9.80;86.40
37974;DHT22;23796;51.458;7.000;2024-02-28T12:44:07;9.30;86.80
37974;DHT22;23796;51.458;7.000;2024-02-28T12:46:34;9.40;87.20
37974;DHT22;23796;51.458;7.000;2024-02-28T12:49:00;9.70;87.20
37974;DHT22;23796;51.458;7.000;2024-02-28T12:51:44;9.90;86.10
37974;DHT22;23796;51.458;7.000;2024-02-28T12:54:11;10.10;85.70
37974;DHT22;23796;51.458;7.000;2024-02-28T12:56:39;9.90;85.60
37974;DHT22;23796;51.458;7.000;2024-02-28T12:59:05;9.90;86.00
37974;DHT22;23796;51.458;7.000;2024-02-28T13:01:35;9.80;85.90
37974;DHT22;23796;51.458;7.000;2024-02-28T13:04:01;10.00;85.70
37974;DHT22;23796;51.458;7.000;2024-02-28T13:06:27;10.20;84.70
37974;DHT22;23796;51.458;7.000;2024-02-28T13:08:53;10.00;84.50
37974;DHT22;23796;51.458;7.000;2024-02-28T13:11:20;9.60;85.60
37974;DHT22;23796;51.458;7.000;2024-02-28T13:13:46;9.90;86.40
37974;DHT22;23796;51.458;7.000;2024-02-28T13:16:15;10.20;84.80
37974;DHT22;23796;51.458;7.000;2024-02-28T13:18:40;10.50;83.70
37974;DHT22;23796;51.458;7.000;2024-02-28T13:21:12;10.30;83.20
37974;DHT22;23796;51.458;7.000;2024-02-28T13:23:40;10.40;82.80
37974;DHT22;23796;51.458;7.000;2024-02-28T13:26:08;10.20;84.00
37974;DHT22;23796;51.458;7.000;2024-02-28T13:28:33;10.50;83.80
37974;DHT22;23796;51.458;7.000;2024-02-28T13:31:01;10.70;83.40
37974;DHT22;23796;51.458;7.000;2024-02-28T13:33:29;10.90;82.70
37974;DHT22;23796;51.458;7.000;2024-02-28T13:35:55;10.90;82.50
37974;DHT22;23796;51.458;7.000;2024-02-28T13:38:21;11.00;81.50
37974;DHT22;23796;51.458;7.000;2024-02-28T13:40:49;11.00;81.20
37974;DHT22;23796;51.458;7.000;2024-02-28T13:43:18;11.00;81.40
37974;DHT22;23796;51.458;7.000;2024-02-28T13:45:50;11.10;81.00
37974;DHT22;23796;51.458;7.000;2024-02-28T13:48:21;10.90;81.10
37974;DHT22;23796;51.458;7.000;2024-02-28T13:50:48;10.90;81.10
37974;DHT22;23796;51.458;7.000;2024-02-28T13:53:14;10.70;81.20
37974;DHT22;23796;51.458;7.000;2024-02-28T13:55:44;10.90;80.50
37974;DHT22;23796;51.458;7.000;2024-02-28T13:58:13;11.00;80.70
37974;DHT22;23796;51.458;7.000;2024-02-28T14:00:39;11.00;80.10
37974;DHT22;23796;51.458;7.000;2024-02-28T14:03:05;11.00;81.10
37974;DHT22;23796;51.458;7.000;2024-02-28T14:05:36;11.10;81.10
37974;DHT22;23796;51.458;7.000;2024-02-28T14:08:02;11.20;80.90
37974;DHT22;23796;51.458;7.000;2024-02-28T14:10:34;11.30;80.40
37974;DHT22;23796;51.458;7.000;2024-02-28T14:13:00;11.40;79.70
37974;DHT22;23796;51.458;7.000;2024-02-28T14:15:25;11.30;79.10
37974;DHT22;23796;51.458;7.000;2024-02-28T14:17:51;11.40;78.90
37974;DHT22;23796;51.458;7.000;2024-02-28T14:20:17;11.30;78.80
37974;DHT22;23796;51.458;7.000;2024-02-28T14:22:44;11.20;79.20
37974;DHT22;23796;51.458;7.000;2024-02-28T14:25:15;11.20;79.50
37974;DHT22;23796;51.458;7.000;2024-02-28T14:27:45;11.30;79.50
37974;DHT22;23796;51.458;7.000;2024-02-28T14:30:12;11.40;79.60
37974;DHT22;23796;51.458;7.000;2024-02-28T14:32:38;11.40;79.30
37974;DHT22;23796;51.458;7.000;2024-02-28T14:35:08;11.30;79.30
37974;DHT22;23796;51.458;7.000;2024-02-28T14:37:37;11.30;79.00
37974;DHT22;23796;51.458;7.000;2024-02-28T14:40:07;11.30;78.90
37974;DHT22;23796;51.458;7.000;2024-02-28T14:42:39;11.20;78.90
37974;DHT22;23796;51.458;7.000;2024-02-28T14:45:11;11.10;79.50
37974;DHT22;23796;51.458;7.000;2024-02-28T14:47:38;11.10;79.70
37974;DHT22;23796;51.458;7.000;2024-02-28T14:50:04;10.90;80.10
37974;DHT22;23796;51.458;7.000;2024-02-28T14:52:30;11.00;80.40
37974;DHT22;23796;51.458;7.000;2024-02-28T14:54:56;11.20;79.90
37974;DHT22;23796;51.458;7.000;2024-02-28T14:57:22;11.30;79.60
37974;DHT22;23796;51.458;7.000;2024-02-28T14:59:47;11.20;79.30
37974;DHT22;23796;51.458;7.000;2024-02-28T15:02:15;11.30;79.70
37974;DHT22;23796;51.458;7.000;2024-02-28T15:04:41;11.40;79.20
37974;DHT22;23796;51.458;7.000;2024-02-28T15:07:07;11.30;78.90
37974;DHT22;23796;51.458;7.000;2024-02-28T15:09:32;11.20;78.80
37974;DHT22;23796;51.458;7.000;2024-02-28T15:11:59;11.10;78.70
37974;DHT22;23796;51.458;7.000;2024-02-28T15:14:25;11.00;79.60
37974;DHT22;23796;51.458;7.000;2024-02-28T15:16:50;11.00;79.10
37974;DHT22;23796;51.458;7.000;2024-02-28T15:19:20;11.00;78.90
37974;DHT22;23796;51.458;7.000;2024-02-28T15:21:46;10.90;78.30
37974;DHT22;23796;51.458;7.000;2024-02-28T15:24:12;10.90;78.60
37974;DHT22;23796;51.458;7.000;2024-02-28T15:26:39;11.00;77.90
37974;DHT22;23796;51.458;7.000;2024-02-28T15:29:05;11.10;77.70
37974;DHT22;23796;51.458;7.000;2024-02-28T15:31:30;11.20;77.50
37974;DHT22;23796;51.458;7.000;2024-02-28T15:33:56;11.20;77.20
37974;DHT22;23796;51.458;7.000;2024-02-28T15:36:22;11.10;77.00
37974;DHT22;23796;51.458;7.000;2024-02-28T15:38:47;11.00;77.10